sensor_id;sensor_type;location;lat;lon;timestamp;temperature;humidity
8269;DHT22;4174;48.304;16.364;2023-05-09T00:02:32;10.00;99.90
8269;DHT22;4174;48.304;16.364;2023-05-09T00:08:36;10.00;99.90
8269;DHT22;4174;48.304;16.364;2023-05-09T00:14:39;10.00;99.90
8269;DHT22;4174;48.304;16.364;2023-05-09T00:20:43;9.80;99.90
8269;DHT22;4174;48.304;16.364;2023-05-09T00:26:48;9.70;99.90
8269;DHT22;4174;48.304;16.364;2023-05-09T00:32:51;9.70;99.90
8269;DHT22;4174;48.304;16.364;2023-05-09T00:38:55;9.70;99.90
8269;DHT22;4174;48.304;16.364;2023-05-09T00:44:59;9.60;99.90
8269;DHT22;4174;48.304;16.364;2023-05-09T00:51:02;9.60;99.90
8269;DHT22;4174;48.304;16.364;2023-05-09T00:57:06;9.60;99.90
8269;DHT22;4174;48.304;16.364;2023-05-09T01:03:10;9.60;99.90
8269;DHT22;4174;48.304;16.364;2023-05-09T01:09:55;9.50;99.90
8269;DHT22;4174;48.304;16.364;2023-05-09T01:15:39;9.50;99.90
8269;DHT22;4174;48.304;16.364;2023-05-09T01:21:42;9.40;99.90
8269;DHT22;4174;48.304;16.364;2023-05-09T01:27:52;9.30;99.90
8269;DHT22;4174;48.304;16.364;2023-05-09T01:33:53;9.30;99.90
8269;DHT22;4174;48.304;16.364;2023-05-09T01:39:57;9.30;99.90
8269;DHT22;4174;48.304;16.364;2023-05-09T01:46:00;9.30;99.90
8269;DHT22;4174;48.304;16.364;2023-05-09T01:52:04;9.20;99.90
8269;DHT22;4174;48.304;16.364;2023-05-09T01:58:07;9.20;99.90
8269;DHT22;4174;48.304;16.364;2023-05-09T02:04:10;9.10;99.90
8269;DHT22;4174;48.304;16.364;2023-05-09T02:10:13;9.10;99.90
8269;DHT22;4174;48.304;16.364;2023-05-09T02:16:18;9.00;99.90
8269;DHT22;4174;48.304;16.364;2023-05-09T02:22:22;9.20;99.90
8269;DHT22;4174;48.304;16.364;2023-05-09T02:28:25;9.10;99.90
8269;DHT22;4174;48.304;16.364;2023-05-09T02:34:28;9.30;99.90
8269;DHT22;4174;48.304;16.364;2023-05-09T02:40:31;9.10;99.90
8269;DHT22;4174;48.304;16.364;2023-05-09T02:46:35;8.80;99.90
8269;DHT22;4174;48.304;16.364;2023-05-09T02:52:39;8.80;99.90
8269;DHT22;4174;48.304;16.364;2023-05-09T02:58:44;8.90;99.90
8269;DHT22;4174;48.304;16.364;2023-05-09T03:04:47;8.90;99.90
8269;DHT22;4174;48.304;16.364;2023-05-09T03:10:50;9.00;99.90
8269;DHT22;4174;48.304;16.364;2023-05-09T03:16:54;9.20;99.90
8269;DHT22;4174;48.304;16.364;2023-05-09T03:22:58;9.10;99.90
8269;DHT22;4174;48.304;16.364;2023-05-09T03:29:01;8.90;99.90
8269;DHT22;4174;48.304;16.364;2023-05-09T03:35:07;8.70;99.90
8269;DHT22;4174;48.304;16.364;2023-05-09T03:41:11;8.80;99.90
8269;DHT22;4174;48.304;16.364;2023-05-09T03:47:14;8.40;99.90
8269;DHT22;4174;48.304;16.364;2023-05-09T03:53:18;8.60;99.90
8269;DHT22;4174;48.304;16.364;2023-05-09T03:59:22;8.60;99.90
8269;DHT22;4174;48.304;16.364;2023-05-09T04:05:26;8.60;99.90
8269;DHT22;4174;48.304;16.364;2023-05-09T04:11:30;8.70;99.90
8269;DHT22;4174;48.304;16.364;2023-05-09T04:17:34;8.70;99.90
8269;DHT22;4174;48.304;16.364;2023-05-09T04:23:38;8.90;99.90
8269;DHT22;4174;48.304;16.364;2023-05-09T04:29:42;8.80;99.90
8269;DHT22;4174;48.304;16.364;2023-05-09T04:35:46;8.70;99.90
8269;DHT22;4174;48.304;16.364;2023-05-09T04:41:50;8.80;99.90
8269;DHT22;4174;48.304;16.364;2023-05-09T04:47:54;9.00;99.90
8269;DHT22;4174;48.304;16.364;2023-05-09T04:53:58;9.70;99.90
8269;DHT22;4174;48.304;16.364;2023-05-09T05:00:02;9.60;99.90
8269;DHT22;4174;48.304;16.364;2023-05-09T05:06:06;10.30;99.90
8269;DHT22;4174;48.304;16.364;2023-05-09T05:12:10;10.40;99.90
8269;DHT22;4174;48.304;16.364;2023-05-09T05:18:14;11.00;99.90
8269;DHT22;4174;48.304;16.364;2023-05-09T05:24:18;12.40;99.90
8269;DHT22;4174;48.304;16.364;2023-05-09T05:30:22;12.90;99.90
8269;DHT22;4174;48.304;16.364;2023-05-09T05:36:26;12.90;99.90
8269;DHT22;4174;48.304;16.364;2023-05-09T05:42:30;12.90;99.90
8269;DHT22;4174;48.304;16.364;2023-05-09T05:48:33;14.50;99.90
8269;DHT22;4174;48.304;16.364;2023-05-09T05:54:37;16.00;97.60
8269;DHT22;4174;48.304;16.364;2023-05-09T06:00:41;15.50;93.70
8269;DHT22;4174;48.304;16.364;2023-05-09T06:06:46;15.50;93.70
8269;DHT22;4174;48.304;16.364;2023-05-09T06:12:50;15.40;91.30
8269;DHT22;4174;48.304;16.364;2023-05-09T06:18:54;14.70;92.10
8269;DHT22;4174;48.304;16.364;2023-05-09T06:24:57;15.40;94.70
8269;DHT22;4174;48.304;16.364;2023-05-09T06:31:01;15.10;90.50
8269;DHT22;4174;48.304;16.364;2023-05-09T06:37:05;15.50;90.90
8269;DHT22;4174;48.304;16.364;2023-05-09T06:43:09;16.30;89.40
8269;DHT22;4174;48.304;16.364;2023-05-09T06:49:13;16.00;89.80
8269;DHT22;4174;48.304;16.364;2023-05-09T06:55:17;15.60;90.90
8269;DHT22;4174;48.304;16.364;2023-05-09T07:01:20;15.80;90.50
8269;DHT22;4174;48.304;16.364;2023-05-09T07:07:24;15.40;88.50
8269;DHT22;4174;48.304;16.364;2023-05-09T07:13:28;15.20;86.60
8269;DHT22;4174;48.304;16.364;2023-05-09T07:19:32;15.70;89.20
8269;DHT22;4174;48.304;16.364;2023-05-09T07:25:36;16.10;87.70
8269;DHT22;4174;48.304;16.364;2023-05-09T07:31:41;15.30;86.30
8269;DHT22;4174;48.304;16.364;2023-05-09T07:37:45;15.20;85.90
8269;DHT22;4174;48.304;16.364;2023-05-09T07:43:49;15.70;88.40
8269;DHT22;4174;48.304;16.364;2023-05-09T07:49:52;15.80;84.60
8269;DHT22;4174;48.304;16.364;2023-05-09T07:55:56;16.10;85.60
8269;DHT22;4174;48.304;16.364;2023-05-09T08:02:00;16.80;87.20
8269;DHT22;4174;48.304;16.364;2023-05-09T08:08:05;16.50;84.70
8269;DHT22;4174;48.304;16.364;2023-05-09T08:14:09;16.40;84.50
8269;DHT22;4174;48.304;16.364;2023-05-09T08:20:12;17.70;81.10
8269;DHT22;4174;48.304;16.364;2023-05-09T08:26:16;16.90;82.60
8269;DHT22;4174;48.304;16.364;2023-05-09T08:32:20;17.40;81.40
8269;DHT22;4174;48.304;16.364;2023-05-09T08:38:24;18.40;83.40
8269;DHT22;4174;48.304;16.364;2023-05-09T08:44:28;18.40;83.20
8269;DHT22;4174;48.304;16.364;2023-05-09T08:50:31;17.70;80.80
8269;DHT22;4174;48.304;16.364;2023-05-09T08:56:35;17.70;80.10
8269;DHT22;4174;48.304;16.364;2023-05-09T09:02:40;17.70;80.10
8269;DHT22;4174;48.304;16.364;2023-05-09T09:08:43;18.00;82.00
8269;DHT22;4174;48.304;16.364;2023-05-09T09:14:47;18.40;80.00
8269;DHT22;4174;48.304;16.364;2023-05-09T09:20:53;18.10;81.60
8269;DHT22;4174;48.304;16.364;2023-05-09T09:26:58;19.60;79.00
8269;DHT22;4174;48.304;16.364;2023-05-09T09:33:02;19.80;75.70
8269;DHT22;4174;48.304;16.364;2023-05-09T09:39:05;19.70;75.70
8269;DHT22;4174;48.304;16.364;2023-05-09T09:45:10;19.20;75.60
8269;DHT22;4174;48.304;16.364;2023-05-09T09:51:12;18.70;70.80
8269;DHT22;4174;48.304;16.364;2023-05-09T09:57:39;18.10;77.40
8269;DHT22;4174;48.304;16.364;2023-05-09T10:03:42;18.60;76.00
8269;DHT22;4174;48.304;16.364;2023-05-09T10:09:45;19.50;75.00
8269;DHT22;4174;48.304;16.364;2023-05-09T10:15:48;20.30;79.90
8269;DHT22;4174;48.304;16.364;2023-05-09T10:21:54;19.40;74.40
8269;DHT22;4174;48.304;16.364;2023-05-09T10:27:56;19.40;74.70
8269;DHT22;4174;48.304;16.364;2023-05-09T10:34:00;19.30;73.00
8269;DHT22;4174;48.304;16.364;2023-05-09T10:40:04;19.30;73.30
8269;DHT22;4174;48.304;16.364;2023-05-09T10:46:08;20.00;73.80
8269;DHT22;4174;48.304;16.364;2023-05-09T10:52:13;19.50;74.40
8269;DHT22;4174;48.304;16.364;2023-05-09T10:58:32;19.50;74.50
8269;DHT22;4174;48.304;16.364;2023-05-09T11:04:34;19.20;74.20
8269;DHT22;4174;48.304;16.364;2023-05-09T11:10:41;19.30;71.90
8269;DHT22;4174;48.304;16.364;2023-05-09T11:17:02;19.80;82.10
8269;DHT22;4174;48.304;16.364;2023-05-09T11:23:04;20.30;70.80
8269;DHT22;4174;48.304;16.364;2023-05-09T11:29:07;20.30;72.90
8269;DHT22;4174;48.304;16.364;2023-05-09T11:35:13;19.80;74.90
8269;DHT22;4174;48.304;16.364;2023-05-09T11:41:15;19.40;70.80
8269;DHT22;4174;48.304;16.364;2023-05-09T11:47:19;18.90;71.70
8269;DHT22;4174;48.304;16.364;2023-05-09T11:53:22;19.40;74.80
8269;DHT22;4174;48.304;16.364;2023-05-09T11:59:26;19.60;74.70
8269;DHT22;4174;48.304;16.364;2023-05-09T12:05:29;19.60;74.70
8269;DHT22;4174;48.304;16.364;2023-05-09T12:11:32;18.80;74.70
8269;DHT22;4174;48.304;16.364;2023-05-09T12:17:35;18.90;72.00
8269;DHT22;4174;48.304;16.364;2023-05-09T12:23:39;19.50;71.20
8269;DHT22;4174;48.304;16.364;2023-05-09T12:29:42;19.40;73.30
8269;DHT22;4174;48.304;16.364;2023-05-09T12:35:45;19.60;71.30
8269;DHT22;4174;48.304;16.364;2023-05-09T12:41:48;19.40;72.10
8269;DHT22;4174;48.304;16.364;2023-05-09T12:47:50;18.80;69.90
8269;DHT22;4174;48.304;16.364;2023-05-09T12:53:53;19.50;74.10
8269;DHT22;4174;48.304;16.364;2023-05-09T12:59:58;19.80;70.90
8269;DHT22;4174;48.304;16.364;2023-05-09T13:06:00;19.90;71.40
8269;DHT22;4174;48.304;16.364;2023-05-09T13:12:03;19.30;74.70
8269;DHT22;4174;48.304;16.364;2023-05-09T13:18:07;19.30;73.50
8269;DHT22;4174;48.304;16.364;2023-05-09T13:24:11;19.10;71.80
8269;DHT22;4174;48.304;16.364;2023-05-09T13:30:14;19.40;71.10
8269;DHT22;4174;48.304;16.364;2023-05-09T13:36:17;19.20;70.90
8269;DHT22;4174;48.304;16.364;2023-05-09T13:42:20;19.20;72.00
8269;DHT22;4174;48.304;16.364;2023-05-09T13:48:24;18.80;77.80
8269;DHT22;4174;48.304;16.364;2023-05-09T13:54:28;18.80;70.70
8269;DHT22;4174;48.304;16.364;2023-05-09T14:00:31;19.30;68.30
8269;DHT22;4174;48.304;16.364;2023-05-09T14:06:34;19.40;69.30
8269;DHT22;4174;48.304;16.364;2023-05-09T14:12:38;18.80;70.60
8269;DHT22;4174;48.304;16.364;2023-05-09T14:18:41;18.80;70.70
8269;DHT22;4174;48.304;16.364;2023-05-09T14:24:45;18.70;71.20
8269;DHT22;4174;48.304;16.364;2023-05-09T14:30:48;18.60;73.50
8269;DHT22;4174;48.304;16.364;2023-05-09T14:36:52;18.90;71.70
8269;DHT22;4174;48.304;16.364;2023-05-09T14:42:57;18.30;70.50
8269;DHT22;4174;48.304;16.364;2023-05-09T14:49:00;18.20;72.90
8269;DHT22;4174;48.304;16.364;2023-05-09T14:55:03;18.40;71.70
8269;DHT22;4174;48.304;16.364;2023-05-09T15:01:07;18.30;71.00
8269;DHT22;4174;48.304;16.364;2023-05-09T15:07:11;17.90;74.50
8269;DHT22;4174;48.304;16.364;2023-05-09T15:13:14;18.00;73.40
8269;DHT22;4174;48.304;16.364;2023-05-09T15:19:17;17.90;73.00
8269;DHT22;4174;48.304;16.364;2023-05-09T15:25:22;18.20;71.60
8269;DHT22;4174;48.304;16.364;2023-05-09T15:31:28;18.20;71.50
8269;DHT22;4174;48.304;16.364;2023-05-09T15:37:28;17.80;74.00
8269;DHT22;4174;48.304;16.364;2023-05-09T15:43:32;18.00;75.30
8269;DHT22;4174;48.304;16.364;2023-05-09T15:49:36;18.20;74.50
8269;DHT22;4174;48.304;16.364;2023-05-09T15:55:39;17.90;74.00
8269;DHT22;4174;48.304;16.364;2023-05-09T16:01:42;17.60;75.00
8269;DHT22;4174;48.304;16.364;2023-05-09T16:07:46;17.50;76.70
8269;DHT22;4174;48.304;16.364;2023-05-09T16:13:49;17.50;78.60
8269;DHT22;4174;48.304;16.364;2023-05-09T16:19:53;17.50;75.60
8269;DHT22;4174;48.304;16.364;2023-05-09T16:25:55;17.50;76.90
8269;DHT22;4174;48.304;16.364;2023-05-09T16:32:01;17.50;75.70
8269;DHT22;4174;48.304;16.364;2023-05-09T16:38:05;17.50;75.60
8269;DHT22;4174;48.304;16.364;2023-05-09T16:44:08;17.60;75.90
8269;DHT22;4174;48.304;16.364;2023-05-09T16:50:12;17.30;76.10
8269;DHT22;4174;48.304;16.364;2023-05-09T16:56:15;17.30;77.10
8269;DHT22;4174;48.304;16.364;2023-05-09T17:02:19;17.30;75.50
8269;DHT22;4174;48.304;16.364;2023-05-09T17:08:23;17.40;76.80
8269;DHT22;4174;48.304;16.364;2023-05-09T17:14:26;17.30;77.30
8269;DHT22;4174;48.304;16.364;2023-05-09T17:20:29;17.20;76.30
8269;DHT22;4174;48.304;16.364;2023-05-09T17:26:33;17.20;78.10
8269;DHT22;4174;48.304;16.364;2023-05-09T17:32:37;17.00;74.50
8269;DHT22;4174;48.304;16.364;2023-05-09T17:38:40;17.00;75.00
8269;DHT22;4174;48.304;16.364;2023-05-09T17:44:43;16.90;75.60
8269;DHT22;4174;48.304;16.364;2023-05-09T17:50:47;16.90;78.90
8269;DHT22;4174;48.304;16.364;2023-05-09T17:56:51;16.90;76.20
8269;DHT22;4174;48.304;16.364;2023-05-09T18:02:55;17.00;77.50
8269;DHT22;4174;48.304;16.364;2023-05-09T18:08:57;16.70;77.80
8269;DHT22;4174;48.304;16.364;2023-05-09T18:15:01;16.60;79.20
8269;DHT22;4174;48.304;16.364;2023-05-09T18:21:03;16.60;79.70
8269;DHT22;4174;48.304;16.364;2023-05-09T18:27:07;16.50;79.50
8269;DHT22;4174;48.304;16.364;2023-05-09T18:33:10;16.40;81.30
8269;DHT22;4174;48.304;16.364;2023-05-09T18:39:14;16.40;81.70
8269;DHT22;4174;48.304;16.364;2023-05-09T18:45:17;16.20;82.90
8269;DHT22;4174;48.304;16.364;2023-05-09T18:51:21;16.00;84.90
8269;DHT22;4174;48.304;16.364;2023-05-09T18:57:24;16.00;85.10
8269;DHT22;4174;48.304;16.364;2023-05-09T19:03:28;15.90;88.40
8269;DHT22;4174;48.304;16.364;2023-05-09T19:09:31;15.90;88.40
8269;DHT22;4174;48.304;16.364;2023-05-09T19:15:35;15.70;88.80
8269;DHT22;4174;48.304;16.364;2023-05-09T19:21:39;15.80;89.30
8269;DHT22;4174;48.304;16.364;2023-05-09T19:27:43;15.40;90.50
8269;DHT22;4174;48.304;16.364;2023-05-09T19:33:45;15.30;91.30
8269;DHT22;4174;48.304;16.364;2023-05-09T19:39:48;15.20;91.90
8269;DHT22;4174;48.304;16.364;2023-05-09T19:45:52;15.00;93.90
8269;DHT22;4174;48.304;16.364;2023-05-09T19:51:56;14.90;93.80
8269;DHT22;4174;48.304;16.364;2023-05-09T19:57:59;14.80;94.90
8269;DHT22;4174;48.304;16.364;2023-05-09T20:04:03;14.80;95.50
8269;DHT22;4174;48.304;16.364;2023-05-09T20:10:07;14.80;95.60
8269;DHT22;4174;48.304;16.364;2023-05-09T20:16:11;14.60;98.20
8269;DHT22;4174;48.304;16.364;2023-05-09T20:22:15;14.50;98.20
8269;DHT22;4174;48.304;16.364;2023-05-09T20:28:18;14.70;98.70
8269;DHT22;4174;48.304;16.364;2023-05-09T20:34:22;14.70;99.90
8269;DHT22;4174;48.304;16.364;2023-05-09T20:40:26;14.60;99.90
8269;DHT22;4174;48.304;16.364;2023-05-09T20:46:29;14.60;99.90
8269;DHT22;4174;48.304;16.364;2023-05-09T20:52:33;14.60;99.90
8269;DHT22;4174;48.304;16.364;2023-05-09T20:58:37;14.50;99.90
8269;DHT22;4174;48.304;16.364;2023-05-09T21:04:40;14.40;99.90
8269;DHT22;4174;48.304;16.364;2023-05-09T21:10:44;14.00;99.90
8269;DHT22;4174;48.304;16.364;2023-05-09T21:16:47;13.90;99.90
8269;DHT22;4174;48.304;16.364;2023-05-09T21:22:50;13.70;99.90
8269;DHT22;4174;48.304;16.364;2023-05-09T21:28:54;13.70;99.90
8269;DHT22;4174;48.304;16.364;2023-05-09T21:34:57;13.60;99.90
8269;DHT22;4174;48.304;16.364;2023-05-09T21:41:01;13.50;99.90
8269;DHT22;4174;48.304;16.364;2023-05-09T21:47:05;13.00;99.90
8269;DHT22;4174;48.304;16.364;2023-05-09T21:53:09;13.10;99.90
8269;DHT22;4174;48.304;16.364;2023-05-09T21:59:12;13.10;99.90
8269;DHT22;4174;48.304;16.364;2023-05-09T22:05:16;13.00;99.90
8269;DHT22;4174;48.304;16.364;2023-05-09T22:11:20;12.90;99.90
8269;DHT22;4174;48.304;16.364;2023-05-09T22:17:23;12.70;99.90
8269;DHT22;4174;48.304;16.364;2023-05-09T22:23:28;12.50;99.90
8269;DHT22;4174;48.304;16.364;2023-05-09T22:29:31;12.50;99.90
8269;DHT22;4174;48.304;16.364;2023-05-09T22:35:35;12.60;99.90
8269;DHT22;4174;48.304;16.364;2023-05-09T22:41:38;12.70;99.90
8269;DHT22;4174;48.304;16.364;2023-05-09T22:47:42;12.50;99.90
8269;DHT22;4174;48.304;16.364;2023-05-09T22:53:45;12.60;99.90
8269;DHT22;4174;48.304;16.364;2023-05-09T22:59:49;12.50;99.90
8269;DHT22;4174;48.304;16.364;2023-05-09T23:05:52;12.50;99.90
8269;DHT22;4174;48.304;16.364;2023-05-09T23:11:56;12.40;99.90
8269;DHT22;4174;48.304;16.364;2023-05-09T23:17:59;12.30;99.90
8269;DHT22;4174;48.304;16.364;2023-05-09T23:24:03;12.20;99.90
8269;DHT22;4174;48.304;16.364;2023-05-09T23:30:09;12.20;99.90
8269;DHT22;4174;48.304;16.364;2023-05-09T23:36:12;12.10;99.90
8269;DHT22;4174;48.304;16.364;2023-05-09T23:42:16;12.00;99.90
8269;DHT22;4174;48.304;16.364;2023-05-09T23:48:20;11.90;99.90
8269;DHT22;4174;48.304;16.364;2023-05-09T23:54:23;11.80;99.90
